createdAt,value
2022-12-27T00:01:32.453Z,99167.47
2022-12-27T00:06:50.673Z,99179.03
2022-12-27T00:09:17.200Z,99184.75
2022-12-27T00:11:43.859Z,99183.16
2022-12-27T00:14:11.661Z,99187.97
2022-12-27T00:16:39.396Z,99203.00
2022-12-27T00:19:06.241Z,99201.88
2022-12-27T00:21:33.236Z,99201.56
2022-12-27T00:26:51.228Z,99206.38
2022-12-27T00:29:17.806Z,99202.56
2022-12-27T00:31:44.423Z,99203.81
2022-12-27T00:36:42.512Z,99209.22
2022-12-27T00:39:10.903Z,99211.66
2022-12-27T00:41:37.467Z,99218.03
2022-12-27T00:44:04.482Z,99227.16
2022-12-27T00:46:31.264Z,99238.63
2022-12-27T00:48:58.826Z,99245.34
2022-12-27T00:51:25.934Z,99253.97
2022-12-27T00:53:53.354Z,99261.81
2022-12-27T00:56:23.079Z,99260.84
2022-12-27T00:58:56.560Z,99265.63
2022-12-27T01:01:25.468Z,99274.06
2022-12-27T01:03:52.557Z,99283.34
2022-12-27T01:06:22.227Z,99289.72
2022-12-27T01:08:49.201Z,99297.69
2022-12-27T01:11:17.535Z,99288.91
2022-12-27T01:13:45.281Z,99298.13
2022-12-27T01:16:14.696Z,99299.69
2022-12-27T01:18:41.820Z,99304.50
2022-12-27T01:21:10.395Z,99309.28
2022-12-27T01:23:38.641Z,99316.50
2022-12-27T01:26:13.270Z,99315.69
2022-12-27T01:28:40.208Z,99320.97
2022-12-27T01:31:13.157Z,99330.97
2022-12-27T01:33:40.409Z,99325.81
2022-12-27T01:36:21.163Z,99343.47
2022-12-27T01:38:48.820Z,99339.22
2022-12-27T01:41:40.950Z,99344.47
2022-12-27T01:44:49.500Z,99349.53
2022-12-27T01:47:44.532Z,99351.75
2022-12-27T01:50:26.143Z,99345.16
2022-12-27T01:52:56.648Z,99354.34
2022-12-27T01:55:35.299Z,99358.34
2022-12-27T01:58:07.290Z,99365.94
2022-12-27T02:00:33.931Z,99366.28
2022-12-27T02:03:03.926Z,99369.28
2022-12-27T02:05:30.728Z,99374.88
2022-12-27T02:08:18.681Z,99379.97
2022-12-27T02:10:46.536Z,99382.38
2022-12-27T02:13:14.680Z,99383.41
2022-12-27T02:15:41.250Z,99381.22
2022-12-27T02:21:15.403Z,99387.25
2022-12-27T02:24:03.913Z,99383.56
2022-12-27T02:26:51.373Z,99386.06
2022-12-27T02:29:43.380Z,99388.09
2022-12-27T02:32:20.613Z,99393.47
2022-12-27T02:34:56.007Z,99389.03
2022-12-27T02:37:25.275Z,99393.03
2022-12-27T02:39:53.379Z,99395.00
2022-12-27T02:42:39.675Z,99388.84
2022-12-27T02:45:37.682Z,99390.56
2022-12-27T02:48:27.537Z,99397.91
2022-12-27T02:51:29.170Z,99397.13
2022-12-27T02:54:12.967Z,99402.34
2022-12-27T03:00:28.875Z,99395.13
2022-12-27T03:03:31.483Z,99400.13
2022-12-27T03:06:42.368Z,99388.56
2022-12-27T03:10:03.302Z,99405.28
2022-12-27T03:13:03.739Z,99406.50
2022-12-27T03:15:57.176Z,99415.31
2022-12-27T03:18:42.801Z,99410.81
2022-12-27T03:21:29.892Z,99405.94
2022-12-27T03:24:16.913Z,99401.06
2022-12-27T03:26:49.042Z,99411.66
2022-12-27T03:29:36.978Z,99409.56
2022-12-27T03:32:27.067Z,99415.78
2022-12-27T03:35:00.470Z,99415.28
2022-12-27T03:37:54.221Z,99411.28
2022-12-27T03:40:27.195Z,99423.22
2022-12-27T03:43:12.187Z,99426.09
2022-12-27T03:46:03.307Z,99430.56
2022-12-27T03:48:34.323Z,99440.09
2022-12-27T03:51:05.310Z,99434.41
2022-12-27T03:53:39.625Z,99442.09
2022-12-27T03:56:07.776Z,99428.81
2022-12-27T03:58:34.777Z,99429.31
2022-12-27T04:01:01.515Z,99434.63
2022-12-27T04:03:29.297Z,99425.50
2022-12-27T04:05:56.055Z,99429.41
2022-12-27T04:08:41.395Z,99432.63
2022-12-27T04:14:18.468Z,99433.22
2022-12-27T04:17:03.466Z,99432.41
2022-12-27T04:19:48.468Z,99436.41
2022-12-27T04:22:33.903Z,99439.44
2022-12-27T04:25:19.260Z,99430.53
2022-12-27T04:28:04.476Z,99437.63
2022-12-27T04:30:49.807Z,99431.63
2022-12-27T04:33:34.790Z,99433.41
2022-12-27T04:36:05.936Z,99436.19
2022-12-27T04:38:33.045Z,99420.06
2022-12-27T04:41:18.035Z,99417.28
2022-12-27T04:44:03.414Z,99424.00
2022-12-27T04:46:48.788Z,99427.88
2022-12-27T04:49:40.614Z,99435.28
2022-12-27T04:52:37.689Z,99436.22
2022-12-27T04:55:25.425Z,99434.06
2022-12-27T04:57:52.800Z,99435.47
2022-12-27T05:00:40.871Z,99436.22
2022-12-27T05:03:10.547Z,99442.81
2022-12-27T05:05:37.976Z,99439.72
2022-12-27T05:08:24.692Z,99440.03
2022-12-27T05:11:10.693Z,99448.94
2022-12-27T05:13:56.111Z,99449.16
2022-12-27T05:16:22.934Z,99449.75
2022-12-27T05:18:49.591Z,99450.53
2022-12-27T05:21:16.372Z,99464.91
2022-12-27T05:24:05.450Z,99460.28
2022-12-27T05:26:33.627Z,99461.69
2022-12-27T05:29:00.730Z,99461.06
2022-12-27T05:31:29.612Z,99477.47
2022-12-27T05:33:57.126Z,99478.88
2022-12-27T05:36:24.310Z,99482.28
2022-12-27T05:38:51.586Z,99478.63
2022-12-27T05:41:18.635Z,99478.63
2022-12-27T05:43:45.788Z,99489.28
2022-12-27T05:46:14.990Z,99482.50
2022-12-27T05:48:42.144Z,99489.00
2022-12-27T05:51:16.367Z,99497.03
2022-12-27T05:53:43.473Z,99494.53
2022-12-27T05:56:15.461Z,99491.13
2022-12-27T05:58:42.609Z,99489.72
2022-12-27T06:01:13.122Z,99486.31
2022-12-27T06:03:39.958Z,99476.28
2022-12-27T06:06:08.079Z,99482.31
2022-12-27T06:08:35.219Z,99496.53
2022-12-27T06:11:13.825Z,99488.50
2022-12-27T06:13:41.943Z,99491.13
2022-12-27T06:16:10.841Z,99494.72
2022-12-27T06:18:39.669Z,99493.41
2022-12-27T06:21:09.091Z,99492.94
2022-12-27T06:23:39.521Z,99501.16
2022-12-27T06:26:12.739Z,99502.84
2022-12-27T06:28:39.495Z,99493.84
2022-12-27T06:31:06.253Z,99500.13
2022-12-27T06:33:33.059Z,99503.53
2022-12-27T06:36:00.124Z,99508.03
2022-12-27T06:38:26.828Z,99505.66
2022-12-27T06:40:53.420Z,99503.75
2022-12-27T06:43:20.029Z,99509.97
2022-12-27T06:45:56.026Z,99514.16
2022-12-27T06:48:22.776Z,99515.59
2022-12-27T06:50:49.383Z,99515.38
2022-12-27T06:53:16.003Z,99499.97
2022-12-27T06:55:42.894Z,99518.38
2022-12-27T06:58:09.572Z,99511.97
2022-12-27T07:00:37.292Z,99515.59
2022-12-27T07:03:04.604Z,99519.38
2022-12-27T07:05:31.320Z,99521.41
2022-12-27T07:10:32.774Z,99518.78
2022-12-27T07:12:59.544Z,99524.53
2022-12-27T07:15:26.392Z,99535.63
2022-12-27T07:17:53.071Z,99531.81
2022-12-27T07:22:53.121Z,99542.25
2022-12-27T07:25:19.739Z,99537.63
2022-12-27T07:27:48.092Z,99535.53
2022-12-27T07:30:14.823Z,99540.13
2022-12-27T07:32:41.489Z,99547.75
2022-12-27T07:35:08.332Z,99542.88
2022-12-27T07:37:35.019Z,99541.84
2022-12-27T07:40:01.683Z,99543.75
2022-12-27T07:42:29.103Z,99546.88
2022-12-27T07:44:55.660Z,99547.38
2022-12-27T07:47:22.336Z,99546.28
2022-12-27T07:49:48.997Z,99544.25
2022-12-27T07:52:15.618Z,99552.97
2022-12-27T07:54:42.205Z,99549.28
2022-12-27T07:57:08.876Z,99552.28
2022-12-27T07:59:35.607Z,99544.25
2022-12-27T08:02:04.898Z,99541.44
2022-12-27T08:04:33.540Z,99537.63
2022-12-27T08:07:14.659Z,99550.97
2022-12-27T08:09:43.762Z,99546.03
2022-12-27T08:12:10.823Z,99549.56
2022-12-27T08:14:37.622Z,99542.94
2022-12-27T08:17:14.965Z,99543.25
2022-12-27T08:19:41.635Z,99540.44
2022-12-27T08:22:08.430Z,99540.09
2022-12-27T08:24:35.009Z,99542.78
2022-12-27T08:27:01.649Z,99546.38
2022-12-27T08:29:28.350Z,99545.50
2022-12-27T08:31:54.983Z,99540.97
2022-12-27T08:34:21.752Z,99540.78
2022-12-27T08:36:55.841Z,99542.97
2022-12-27T08:39:23.260Z,99544.38
2022-12-27T08:41:50.083Z,99542.78
2022-12-27T08:44:16.765Z,99535.28
2022-12-27T08:46:43.407Z,99537.38
2022-12-27T08:49:09.975Z,99541.91
2022-12-27T08:51:41.281Z,99553.72
2022-12-27T08:54:09.000Z,99551.50
2022-12-27T08:56:35.798Z,99557.03
2022-12-27T08:59:02.594Z,99555.34
2022-12-27T09:01:29.383Z,99557.88
2022-12-27T09:03:56.160Z,99559.72
2022-12-27T09:06:24.546Z,99550.47
2022-12-27T09:08:52.200Z,99551.44
2022-12-27T09:11:21.771Z,99555.66
2022-12-27T09:13:48.538Z,99555.03
2022-12-27T09:16:20.494Z,99560.75
2022-12-27T09:18:49.634Z,99555.16
2022-12-27T09:21:17.484Z,99558.00
2022-12-27T09:23:44.894Z,99560.53
2022-12-27T09:26:14.513Z,99565.66
2022-12-27T09:28:42.087Z,99567.44
2022-12-27T09:31:10.488Z,99559.16
2022-12-27T09:36:17.829Z,99571.28
2022-12-27T09:38:45.673Z,99583.72
2022-12-27T09:42:11.751Z,99586.00
2022-12-27T09:44:13.780Z,99581.09
2022-12-27T09:47:15.495Z,99586.41
2022-12-27T09:49:47.079Z,99586.59
2022-12-27T09:52:19.710Z,99586.00
2022-12-27T09:54:53.000Z,99576.13
2022-12-27T09:57:35.761Z,99579.41
2022-12-27T10:00:06.911Z,99578.13
2022-12-27T10:02:35.054Z,99570.03
2022-12-27T10:05:20.726Z,99577.50
2022-12-27T10:08:01.428Z,99572.22
2022-12-27T10:10:40.084Z,99574.06
2022-12-27T10:13:54.595Z,99574.09
2022-12-27T10:16:57.186Z,99578.91
2022-12-27T10:19:34.039Z,99570.03
2022-12-27T10:22:41.030Z,99570.66
2022-12-27T10:25:14.937Z,99568.19
2022-12-27T10:27:41.993Z,99562.38
2022-12-27T10:30:18.658Z,99567.72
2022-12-27T10:32:46.745Z,99562.38
2022-12-27T10:35:20.337Z,99560.16
2022-12-27T10:37:48.659Z,99559.53
2022-12-27T10:40:20.927Z,99562.63
2022-12-27T10:43:00.308Z,99557.53
2022-12-27T10:45:33.768Z,99564.41
2022-12-27T10:48:15.467Z,99560.84
2022-12-27T10:50:53.759Z,99558.38
2022-12-27T10:53:38.641Z,99559.16
2022-12-27T10:56:11.001Z,99555.41
2022-12-27T10:58:56.461Z,99551.91
2022-12-27T11:01:29.939Z,99550.41
2022-12-27T11:04:15.973Z,99550.63
2022-12-27T11:06:49.527Z,99545.34
2022-12-27T11:09:30.415Z,99545.69
2022-12-27T11:12:22.281Z,99551.25
2022-12-27T11:14:57.656Z,99544.22
2022-12-27T11:17:40.550Z,99547.31
2022-12-27T11:20:19.425Z,99544.69
2022-12-27T11:22:51.188Z,99545.78
2022-12-27T11:27:56.745Z,99552.06
2022-12-27T11:30:31.240Z,99544.06
2022-12-27T11:35:49.497Z,99542.22
2022-12-27T11:38:34.254Z,99540.13
2022-12-27T11:43:49.568Z,99540.81
2022-12-27T11:46:24.971Z,99531.53
2022-12-27T11:48:57.300Z,99536.34
2022-12-27T11:51:38.920Z,99526.25
2022-12-27T11:54:30.944Z,99526.50
2022-12-27T11:57:20.043Z,99528.22
2022-12-27T12:00:17.256Z,99511.63
2022-12-27T12:03:21.061Z,99519.63
2022-12-27T12:06:06.290Z,99523.13
2022-12-27T12:08:35.482Z,99522.19
2022-12-27T12:11:15.094Z,99520.09
2022-12-27T12:14:02.806Z,99519.59
2022-12-27T12:16:39.611Z,99511.28
2022-12-27T12:19:36.432Z,99529.69
2022-12-27T12:22:20.821Z,99525.88
2022-12-27T12:25:07.865Z,99523.44
2022-12-27T12:28:30.372Z,99516.88
2022-12-27T12:31:33.841Z,99513.69
2022-12-27T12:34:34.225Z,99504.72
2022-12-27T12:37:15.774Z,99509.38
2022-12-27T12:40:03.778Z,99514.81
2022-12-27T12:42:51.579Z,99508.25
2022-12-27T12:45:42.122Z,99509.38
2022-12-27T12:48:14.743Z,99507.63
2022-12-27T12:51:08.891Z,99510.66
2022-12-27T12:53:44.874Z,99509.38
2022-12-27T12:59:49.366Z,99510.47
2022-12-27T13:02:40.812Z,99507.13
2022-12-27T13:05:47.764Z,99509.50
2022-12-27T13:08:30.650Z,99501.69
2022-12-27T13:11:29.167Z,99504.72
2022-12-27T13:14:33.182Z,99503.28
2022-12-27T13:17:08.209Z,99498.97
2022-12-27T13:20:03.521Z,99500.06
2022-12-27T13:22:48.101Z,99493.97
2022-12-27T13:25:14.664Z,99493.97
2022-12-27T13:28:10.336Z,99494.47
2022-12-27T13:31:06.632Z,99491.75
2022-12-27T13:34:08.490Z,99489.31
2022-12-27T13:36:45.906Z,99484.53
2022-12-27T13:39:43.175Z,99486.28
2022-12-27T13:42:38.937Z,99479.72
2022-12-27T13:45:09.635Z,99477.44
2022-12-27T13:47:54.651Z,99470.28
2022-12-27T13:50:24.015Z,99466.13
2022-12-27T13:53:00.025Z,99476.38
2022-12-27T13:55:50.960Z,99470.28
2022-12-27T13:58:45.521Z,99456.97
2022-12-27T14:01:30.285Z,99461.31
2022-12-27T14:04:45.097Z,99467.72
2022-12-27T14:07:38.775Z,99464.38
2022-12-27T14:10:08.270Z,99465.19
2022-12-27T14:12:34.876Z,99465.84
2022-12-27T14:15:05.408Z,99467.47
2022-12-27T14:17:39.353Z,99463.63
2022-12-27T14:20:26.939Z,99464.09
2022-12-27T14:23:08.362Z,99461.06
2022-12-27T14:25:53.432Z,99463.44
2022-12-27T14:28:32.040Z,99468.75
2022-12-27T14:31:13.531Z,99473.88
2022-12-27T14:34:01.277Z,99472.59
2022-12-27T14:36:46.387Z,99481.41
2022-12-27T14:39:24.876Z,99474.34
2022-12-27T14:42:14.981Z,99477.84
2022-12-27T14:45:26.022Z,99489.53
2022-12-27T14:48:30.221Z,99482.34
2022-12-27T14:51:59.417Z,99476.25
2022-12-27T14:54:41.748Z,99476.75
2022-12-27T14:57:20.819Z,99481.53
2022-12-27T14:59:58.426Z,99478.66
2022-12-27T15:02:53.724Z,99480.88
2022-12-27T15:05:55.731Z,99486.34
2022-12-27T15:08:36.089Z,99483.94
2022-12-27T15:11:15.969Z,99472.59
2022-12-27T15:14:15.297Z,99474.34
2022-12-27T15:17:17.548Z,99477.25
2022-12-27T15:20:18.743Z,99480.41
2022-12-27T15:23:07.384Z,99477.03
2022-12-27T15:26:04.409Z,99473.69
2022-12-27T15:28:51.744Z,99459.16
2022-12-27T15:35:06.978Z,99458.22
2022-12-27T15:37:48.414Z,99452.13
2022-12-27T15:40:39.496Z,99447.31
2022-12-27T15:43:29.234Z,99449.91
2022-12-27T15:46:13.582Z,99453.88
2022-12-27T15:52:03.565Z,99447.94
2022-12-27T15:54:30.120Z,99448.25
2022-12-27T15:57:14.350Z,99446.97
2022-12-27T15:59:48.240Z,99451.59
2022-12-27T16:02:17.628Z,99445.69
2022-12-27T16:04:47.406Z,99444.75
2022-12-27T16:10:31.011Z,99449.81
2022-12-27T16:15:52.217Z,99446.66
2022-12-27T16:18:18.976Z,99449.53
2022-12-27T16:21:03.840Z,99444.38
2022-12-27T16:23:38.901Z,99438.78
2022-12-27T16:26:19.780Z,99442.56
2022-12-27T16:28:59.654Z,99432.09
2022-12-27T16:31:31.878Z,99432.78
2022-12-27T16:34:10.830Z,99432.59
2022-12-27T16:36:44.817Z,99440.59
2022-12-27T16:39:14.137Z,99432.09
2022-12-27T16:41:57.919Z,99440.84
2022-12-27T16:44:24.470Z,99434.34
2022-12-27T16:46:59.868Z,99437.53
2022-12-27T16:49:59.716Z,99443.47
2022-12-27T16:52:45.172Z,99443.03
2022-12-27T16:55:51.500Z,99444.31
2022-12-27T16:58:18.089Z,99444.78
2022-12-27T17:00:46.865Z,99446.19
2022-12-27T17:03:22.548Z,99439.72
2022-12-27T17:06:29.902Z,99436.97
2022-12-27T17:08:37.059Z,99432.13
2022-12-27T17:11:25.398Z,99429.75
2022-12-27T17:14:00.750Z,99427.03
2022-12-27T17:16:31.467Z,99419.59
2022-12-27T17:19:02.584Z,99429.81
2022-12-27T17:21:35.079Z,99420.75
2022-12-27T17:24:07.618Z,99411.13
2022-12-27T17:26:52.692Z,99414.91
2022-12-27T17:29:40.353Z,99406.69
2022-12-27T17:32:34.875Z,99402.34
2022-12-27T17:35:11.511Z,99400.41
2022-12-27T17:37:44.721Z,99398.41
2022-12-27T17:40:21.950Z,99396.72
2022-12-27T17:43:25.197Z,99391.94
2022-12-27T17:46:10.486Z,99387.00
2022-12-27T17:48:37.411Z,99391.84
2022-12-27T17:51:13.635Z,99386.53
2022-12-27T17:54:06.518Z,99390.44
2022-12-27T17:57:15.832Z,99388.09
2022-12-27T17:59:44.992Z,99377.88
2022-12-27T18:02:11.597Z,99376.28
2022-12-27T18:04:43.009Z,99390.31
2022-12-27T18:07:14.842Z,99388.34
2022-12-27T18:09:47.260Z,99390.69
2022-12-27T18:12:21.484Z,99388.22
2022-12-27T18:14:57.775Z,99383.44
2022-12-27T18:17:32.747Z,99384.28
2022-12-27T18:19:59.402Z,99384.97
2022-12-27T18:22:27.299Z,99373.03
2022-12-27T18:24:54.085Z,99371.59
2022-12-27T18:27:24.985Z,99378.00
2022-12-27T18:29:52.151Z,99378.25
2022-12-27T18:32:19.495Z,99373.69
2022-12-27T18:34:46.119Z,99371.00
2022-12-27T18:37:22.211Z,99370.88
2022-12-27T18:39:51.536Z,99368.66
2022-12-27T18:42:27.413Z,99365.63
2022-12-27T18:44:58.897Z,99362.34
2022-12-27T18:47:27.340Z,99366.75
2022-12-27T18:50:02.102Z,99362.09
2022-12-27T18:55:20.775Z,99350.16
2022-12-27T18:57:48.501Z,99352.13
2022-12-27T19:00:22.010Z,99353.75
2022-12-27T19:02:50.443Z,99346.59
2022-12-27T19:05:20.131Z,99346.97
2022-12-27T19:07:51.519Z,99345.56
2022-12-27T19:10:21.017Z,99342.28
2022-12-27T19:12:48.185Z,99342.00
2022-12-27T19:15:25.023Z,99348.22
2022-12-27T19:17:56.882Z,99346.13
2022-12-27T19:20:50.192Z,99340.22
2022-12-27T19:23:31.148Z,99339.28
2022-12-27T19:26:20.693Z,99343.59
2022-12-27T19:29:13.574Z,99341.28
2022-12-27T19:31:43.828Z,99350.63
2022-12-27T19:34:16.593Z,99341.16
2022-12-27T19:36:45.117Z,99329.78
2022-12-27T19:39:24.832Z,99330.00
2022-12-27T19:41:51.998Z,99322.41
2022-12-27T19:46:52.051Z,99320.47
2022-12-27T19:52:09.307Z,99315.09
2022-12-27T19:54:35.892Z,99298.34
2022-12-27T19:57:02.496Z,99291.28
2022-12-27T19:59:29.101Z,99291.66
2022-12-27T20:01:55.847Z,99287.59
2022-12-27T20:04:22.650Z,99289.00
2022-12-27T20:06:49.450Z,99280.78
2022-12-27T20:09:19.459Z,99279.88
2022-12-27T20:11:48.301Z,99282.81
2022-12-27T20:14:17.662Z,99279.50
2022-12-27T20:16:45.624Z,99273.16
2022-12-27T20:19:16.085Z,99278.78
2022-12-27T20:21:42.792Z,99282.41
2022-12-27T20:24:13.185Z,99281.09
2022-12-27T20:26:40.766Z,99282.50
2022-12-27T20:29:07.478Z,99289.19
2022-12-27T20:31:37.556Z,99280.47
2022-12-27T20:34:10.239Z,99282.78
2022-12-27T20:36:36.873Z,99285.75
2022-12-27T20:39:03.718Z,99277.00
2022-12-27T20:41:30.363Z,99269.97
2022-12-27T20:43:58.048Z,99271.28
2022-12-27T20:46:25.277Z,99273.88
2022-12-27T20:48:53.893Z,99279.28
2022-12-27T20:51:23.907Z,99268.78
2022-12-27T20:53:56.043Z,99255.28
2022-12-27T20:56:22.740Z,99259.56
2022-12-27T20:58:49.657Z,99262.28
2022-12-27T21:01:20.190Z,99261.06
2022-12-27T21:03:47.243Z,99265.06
2022-12-27T21:06:19.505Z,99261.38
2022-12-27T21:08:52.547Z,99263.69
2022-12-27T21:11:27.062Z,99258.53
2022-12-27T21:13:54.082Z,99257.34
2022-12-27T21:16:23.070Z,99255.16
2022-12-27T21:21:29.848Z,99246.34
2022-12-27T21:23:58.197Z,99239.34
2022-12-27T21:26:29.469Z,99242.63
2022-12-27T21:28:57.618Z,99241.59
2022-12-27T21:31:24.579Z,99243.72
2022-12-27T21:33:51.507Z,99234.59
2022-12-27T21:36:21.357Z,99238.78
2022-12-27T21:38:49.183Z,99247.78
2022-12-27T21:41:21.584Z,99241.94
2022-12-27T21:43:49.313Z,99238.72
2022-12-27T21:46:17.280Z,99246.53
2022-12-27T21:48:43.966Z,99252.94
2022-12-27T21:51:16.631Z,99250.16
2022-12-27T21:53:44.494Z,99251.16
2022-12-27T21:56:15.818Z,99248.47
2022-12-27T21:58:43.635Z,99248.38
2022-12-27T22:01:16.190Z,99247.34
2022-12-27T22:03:45.415Z,99239.84
2022-12-27T22:06:15.057Z,99234.56
2022-12-27T22:08:42.610Z,99237.56
2022-12-27T22:11:10.096Z,99239.97
2022-12-27T22:13:37.549Z,99238.16
2022-12-27T22:16:07.199Z,99225.44
2022-12-27T22:18:35.766Z,99229.34
2022-12-27T22:21:05.561Z,99215.75
2022-12-27T22:23:34.031Z,99222.56
2022-12-27T22:26:01.346Z,99234.47
2022-12-27T22:28:28.397Z,99227.25
2022-12-27T22:30:55.599Z,99220.03
2022-12-27T22:33:22.187Z,99214.16
2022-12-27T22:35:48.793Z,99216.06
2022-12-27T22:38:15.361Z,99211.53
2022-12-27T22:43:15.233Z,99219.34
2022-12-27T22:45:42.803Z,99214.34
2022-12-27T22:48:09.743Z,99199.81
2022-12-27T22:50:37.929Z,99199.44
2022-12-27T22:53:04.765Z,99194.94
2022-12-27T22:55:31.405Z,99184.53
2022-12-27T22:57:58.129Z,99182.44
2022-12-27T23:00:24.780Z,99184.53
2022-12-27T23:02:51.414Z,99184.63
2022-12-27T23:05:18.180Z,99189.22
2022-12-27T23:08:05.938Z,99185.41
2022-12-27T23:10:31.530Z,99185.13
2022-12-27T23:12:58.376Z,99189.72
2022-12-27T23:15:25.251Z,99188.09
2022-12-27T23:17:53.184Z,99186.91
2022-12-27T23:20:19.845Z,99182.69
2022-12-27T23:22:46.490Z,99187.72
2022-12-27T23:25:13.130Z,99176.41
2022-12-27T23:27:39.827Z,99164.78
2022-12-27T23:32:42.409Z,99172.25
2022-12-27T23:35:09.568Z,99164.44
2022-12-27T23:37:36.182Z,99154.44
2022-12-27T23:40:02.766Z,99163.34
2022-12-27T23:42:29.270Z,99160.31
2022-12-27T23:44:55.861Z,99160.31
2022-12-27T23:47:22.441Z,99168.03
2022-12-27T23:49:48.992Z,99166.00
2022-12-27T23:52:15.601Z,99163.59
2022-12-27T23:54:42.143Z,99169.22
2022-12-27T23:57:22.468Z,99167.13
2022-12-27T23:59:50.181Z,99158.84
